sensor_id;sensor_type;location;lat;lon;timestamp;P1;durP1;ratioP1;P2;durP2;ratioP2
62024;SDS011;47978;49.118;12.146;2022-09-09T00:01:35;3.05;;;1.58;;
62024;SDS011;47978;49.118;12.146;2022-09-09T00:04:10;5.10;;;1.52;;
62024;SDS011;47978;49.118;12.146;2022-09-09T00:06:45;3.65;;;1.58;;
62024;SDS011;47978;49.118;12.146;2022-09-09T00:09:18;8.20;;;2.10;;
62024;SDS011;47978;49.118;12.146;2022-09-09T00:11:48;9.35;;;1.67;;
62024;SDS011;47978;49.118;12.146;2022-09-09T00:14:19;2.97;;;1.47;;
62024;SDS011;47978;49.118;12.146;2022-09-09T00:16:50;5.70;;;1.70;;
62024;SDS011;47978;49.118;12.146;2022-09-09T00:19:22;9.15;;;3.90;;
62024;SDS011;47978;49.118;12.146;2022-09-09T00:21:58;4.90;;;1.70;;
62024;SDS011;47978;49.118;12.146;2022-09-09T00:24:32;6.25;;;2.20;;
62024;SDS011;47978;49.118;12.146;2022-09-09T00:27:06;4.40;;;1.92;;
62024;SDS011;47978;49.118;12.146;2022-09-09T00:29:41;6.13;;;2.00;;
62024;SDS011;47978;49.118;12.146;2022-09-09T00:32:12;10.05;;;2.13;;
62024;SDS011;47978;49.118;12.146;2022-09-09T00:34:47;6.50;;;1.73;;
62024;SDS011;47978;49.118;12.146;2022-09-09T00:37:16;6.30;;;1.80;;
62024;SDS011;47978;49.118;12.146;2022-09-09T00:39:45;6.28;;;1.75;;
62024;SDS011;47978;49.118;12.146;2022-09-09T00:42:14;8.05;;;1.83;;
62024;SDS011;47978;49.118;12.146;2022-09-09T00:44:50;6.38;;;1.65;;
62024;SDS011;47978;49.118;12.146;2022-09-09T00:47:38;9.18;;;1.98;;
62024;SDS011;47978;49.118;12.146;2022-09-09T00:50:13;2.45;;;1.55;;
62024;SDS011;47978;49.118;12.146;2022-09-09T00:52:54;2.28;;;1.48;;
62024;SDS011;47978;49.118;12.146;2022-09-09T00:55:30;3.47;;;1.70;;
62024;SDS011;47978;49.118;12.146;2022-09-09T00:58:06;4.93;;;1.85;;
62024;SDS011;47978;49.118;12.146;2022-09-09T01:00:34;5.28;;;1.80;;
62024;SDS011;47978;49.118;12.146;2022-09-09T01:03:11;3.55;;;1.40;;
62024;SDS011;47978;49.118;12.146;2022-09-09T01:05:46;5.15;;;1.77;;
62024;SDS011;47978;49.118;12.146;2022-09-09T01:08:31;5.22;;;1.70;;
62024;SDS011;47978;49.118;12.146;2022-09-09T01:11:07;2.72;;;1.70;;
62024;SDS011;47978;49.118;12.146;2022-09-09T01:13:41;5.30;;;1.95;;
62024;SDS011;47978;49.118;12.146;2022-09-09T01:16:10;3.15;;;1.67;;
62024;SDS011;47978;49.118;12.146;2022-09-09T01:18:38;11.30;;;3.67;;
62024;SDS011;47978;49.118;12.146;2022-09-09T01:21:09;3.15;;;1.88;;
62024;SDS011;47978;49.118;12.146;2022-09-09T01:23:48;4.28;;;1.60;;
62024;SDS011;47978;49.118;12.146;2022-09-09T01:26:36;9.55;;;2.10;;
62024;SDS011;47978;49.118;12.146;2022-09-09T01:29:04;3.50;;;1.60;;
62024;SDS011;47978;49.118;12.146;2022-09-09T01:31:35;1.98;;;1.67;;
62024;SDS011;47978;49.118;12.146;2022-09-09T01:34:04;3.25;;;2.00;;
62024;SDS011;47978;49.118;12.146;2022-09-09T01:36:37;3.92;;;2.00;;
62024;SDS011;47978;49.118;12.146;2022-09-09T01:39:08;3.95;;;1.90;;
62024;SDS011;47978;49.118;12.146;2022-09-09T01:41:37;4.30;;;1.90;;
62024;SDS011;47978;49.118;12.146;2022-09-09T01:44:04;4.20;;;2.10;;
62024;SDS011;47978;49.118;12.146;2022-09-09T01:46:32;4.40;;;1.92;;
62024;SDS011;47978;49.118;12.146;2022-09-09T01:48:58;4.68;;;1.80;;
62024;SDS011;47978;49.118;12.146;2022-09-09T01:51:28;2.95;;;1.63;;
62024;SDS011;47978;49.118;12.146;2022-09-09T01:53:54;4.78;;;2.22;;
62024;SDS011;47978;49.118;12.146;2022-09-09T01:56:24;4.22;;;1.80;;
62024;SDS011;47978;49.118;12.146;2022-09-09T01:59:09;7.57;;;2.22;;
62024;SDS011;47978;49.118;12.146;2022-09-09T02:01:51;2.35;;;1.73;;
62024;SDS011;47978;49.118;12.146;2022-09-09T02:04:32;7.95;;;2.05;;
62024;SDS011;47978;49.118;12.146;2022-09-09T02:07:04;8.23;;;2.25;;
62024;SDS011;47978;49.118;12.146;2022-09-09T02:09:40;3.78;;;2.83;;
62024;SDS011;47978;49.118;12.146;2022-09-09T02:12:11;5.15;;;3.25;;
62024;SDS011;47978;49.118;12.146;2022-09-09T02:14:46;4.75;;;2.88;;
62024;SDS011;47978;49.118;12.146;2022-09-09T02:17:16;4.43;;;3.10;;
62024;SDS011;47978;49.118;12.146;2022-09-09T02:19:50;4.40;;;2.03;;
62024;SDS011;47978;49.118;12.146;2022-09-09T02:22:22;2.45;;;1.90;;
62024;SDS011;47978;49.118;12.146;2022-09-09T02:24:51;3.92;;;2.30;;
62024;SDS011;47978;49.118;12.146;2022-09-09T02:27:23;3.78;;;2.17;;
62024;SDS011;47978;49.118;12.146;2022-09-09T02:29:51;3.30;;;2.20;;
62024;SDS011;47978;49.118;12.146;2022-09-09T02:32:22;7.97;;;2.83;;
62024;SDS011;47978;49.118;12.146;2022-09-09T02:34:51;2.08;;;1.63;;
62024;SDS011;47978;49.118;12.146;2022-09-09T02:37:22;5.60;;;2.17;;
62024;SDS011;47978;49.118;12.146;2022-09-09T02:39:52;5.70;;;1.93;;
62024;SDS011;47978;49.118;12.146;2022-09-09T02:42:19;7.82;;;2.42;;
62024;SDS011;47978;49.118;12.146;2022-09-09T02:44:46;5.88;;;2.28;;
62024;SDS011;47978;49.118;12.146;2022-09-09T02:50:05;4.10;;;2.40;;
62024;SDS011;47978;49.118;12.146;2022-09-09T02:52:40;3.00;;;2.15;;
62024;SDS011;47978;49.118;12.146;2022-09-09T02:55:23;5.82;;;2.15;;
62024;SDS011;47978;49.118;12.146;2022-09-09T02:57:55;2.90;;;2.33;;
62024;SDS011;47978;49.118;12.146;2022-09-09T03:00:25;8.02;;;2.30;;
62024;SDS011;47978;49.118;12.146;2022-09-09T03:02:54;4.13;;;2.20;;
62024;SDS011;47978;49.118;12.146;2022-09-09T03:05:21;8.02;;;2.42;;
62024;SDS011;47978;49.118;12.146;2022-09-09T03:07:47;2.92;;;2.17;;
62024;SDS011;47978;49.118;12.146;2022-09-09T03:10:14;5.78;;;2.30;;
62024;SDS011;47978;49.118;12.146;2022-09-09T03:12:41;3.78;;;2.03;;
62024;SDS011;47978;49.118;12.146;2022-09-09T03:15:08;3.40;;;2.30;;
62024;SDS011;47978;49.118;12.146;2022-09-09T03:17:35;4.15;;;2.10;;
62024;SDS011;47978;49.118;12.146;2022-09-09T03:20:03;5.50;;;2.45;;
62024;SDS011;47978;49.118;12.146;2022-09-09T03:22:30;3.83;;;3.22;;
62024;SDS011;47978;49.118;12.146;2022-09-09T03:24:57;7.07;;;3.58;;
62024;SDS011;47978;49.118;12.146;2022-09-09T03:27:24;4.65;;;3.22;;
62024;SDS011;47978;49.118;12.146;2022-09-09T03:29:50;4.97;;;3.83;;
62024;SDS011;47978;49.118;12.146;2022-09-09T03:32:17;10.52;;;3.40;;
62024;SDS011;47978;49.118;12.146;2022-09-09T03:34:44;4.57;;;3.35;;
62024;SDS011;47978;49.118;12.146;2022-09-09T03:37:12;6.22;;;3.65;;
62024;SDS011;47978;49.118;12.146;2022-09-09T03:39:38;9.25;;;4.13;;
62024;SDS011;47978;49.118;12.146;2022-09-09T03:42:05;5.03;;;4.32;;
62024;SDS011;47978;49.118;12.146;2022-09-09T03:44:32;5.90;;;5.07;;
62024;SDS011;47978;49.118;12.146;2022-09-09T03:46:58;7.05;;;4.57;;
62024;SDS011;47978;49.118;12.146;2022-09-09T03:49:25;5.85;;;4.40;;
62024;SDS011;47978;49.118;12.146;2022-09-09T03:51:51;5.75;;;4.60;;
62024;SDS011;47978;49.118;12.146;2022-09-09T03:54:19;6.95;;;4.25;;
62024;SDS011;47978;49.118;12.146;2022-09-09T03:56:46;5.53;;;4.90;;
62024;SDS011;47978;49.118;12.146;2022-09-09T03:59:12;5.38;;;4.68;;
62024;SDS011;47978;49.118;12.146;2022-09-09T04:01:39;8.38;;;5.28;;
62024;SDS011;47978;49.118;12.146;2022-09-09T04:04:05;5.47;;;4.60;;
62024;SDS011;47978;49.118;12.146;2022-09-09T04:06:32;5.68;;;4.78;;
62024;SDS011;47978;49.118;12.146;2022-09-09T04:08:58;6.10;;;5.05;;
62024;SDS011;47978;49.118;12.146;2022-09-09T04:11:26;8.98;;;6.10;;
62024;SDS011;47978;49.118;12.146;2022-09-09T04:13:53;8.02;;;4.97;;
62024;SDS011;47978;49.118;12.146;2022-09-09T04:16:19;5.82;;;5.22;;
62024;SDS011;47978;49.118;12.146;2022-09-09T04:18:46;7.93;;;6.25;;
62024;SDS011;47978;49.118;12.146;2022-09-09T04:21:13;7.93;;;6.55;;
62024;SDS011;47978;49.118;12.146;2022-09-09T04:23:39;9.05;;;7.45;;
62024;SDS011;47978;49.118;12.146;2022-09-09T04:26:06;6.93;;;6.18;;
62024;SDS011;47978;49.118;12.146;2022-09-09T04:28:34;7.47;;;6.50;;
62024;SDS011;47978;49.118;12.146;2022-09-09T04:31:06;8.85;;;7.30;;
62024;SDS011;47978;49.118;12.146;2022-09-09T04:33:33;8.45;;;7.00;;
62024;SDS011;47978;49.118;12.146;2022-09-09T04:36:05;7.10;;;6.18;;
62024;SDS011;47978;49.118;12.146;2022-09-09T04:38:32;10.13;;;6.97;;
62024;SDS011;47978;49.118;12.146;2022-09-09T04:40:59;7.78;;;6.97;;
62024;SDS011;47978;49.118;12.146;2022-09-09T04:43:25;7.97;;;6.55;;
62024;SDS011;47978;49.118;12.146;2022-09-09T04:45:53;6.75;;;6.05;;
62024;SDS011;47978;49.118;12.146;2022-09-09T04:48:20;7.80;;;6.82;;
62024;SDS011;47978;49.118;12.146;2022-09-09T04:50:53;7.70;;;5.80;;
62024;SDS011;47978;49.118;12.146;2022-09-09T04:53:21;8.60;;;6.25;;
62024;SDS011;47978;49.118;12.146;2022-09-09T04:55:48;7.32;;;5.93;;
62024;SDS011;47978;49.118;12.146;2022-09-09T04:58:15;7.65;;;5.85;;
62024;SDS011;47978;49.118;12.146;2022-09-09T05:00:41;8.20;;;6.20;;
62024;SDS011;47978;49.118;12.146;2022-09-09T05:03:09;10.52;;;6.10;;
62024;SDS011;47978;49.118;12.146;2022-09-09T05:05:36;11.05;;;6.53;;
62024;SDS011;47978;49.118;12.146;2022-09-09T05:08:03;7.70;;;6.00;;
62024;SDS011;47978;49.118;12.146;2022-09-09T05:10:30;6.82;;;6.05;;
62024;SDS011;47978;49.118;12.146;2022-09-09T05:12:57;6.47;;;5.75;;
62024;SDS011;47978;49.118;12.146;2022-09-09T05:15:25;8.90;;;6.43;;
62024;SDS011;47978;49.118;12.146;2022-09-09T05:17:51;7.60;;;6.70;;
62024;SDS011;47978;49.118;12.146;2022-09-09T05:20:19;7.43;;;6.25;;
62024;SDS011;47978;49.118;12.146;2022-09-09T05:22:46;8.60;;;6.25;;
62024;SDS011;47978;49.118;12.146;2022-09-09T05:25:12;7.07;;;5.63;;
62024;SDS011;47978;49.118;12.146;2022-09-09T05:27:39;6.75;;;6.03;;
62024;SDS011;47978;49.118;12.146;2022-09-09T05:30:06;12.07;;;6.70;;
62024;SDS011;47978;49.118;12.146;2022-09-09T05:32:33;6.68;;;5.47;;
62024;SDS011;47978;49.118;12.146;2022-09-09T05:35:00;8.48;;;6.25;;
62024;SDS011;47978;49.118;12.146;2022-09-09T05:37:28;7.55;;;6.65;;
62024;SDS011;47978;49.118;12.146;2022-09-09T05:39:54;8.73;;;7.25;;
62024;SDS011;47978;49.118;12.146;2022-09-09T05:42:21;11.60;;;6.55;;
62024;SDS011;47978;49.118;12.146;2022-09-09T05:44:48;8.88;;;7.90;;
62024;SDS011;47978;49.118;12.146;2022-09-09T05:47:14;6.70;;;5.97;;
62024;SDS011;47978;49.118;12.146;2022-09-09T05:49:41;9.77;;;7.10;;
62024;SDS011;47978;49.118;12.146;2022-09-09T05:52:07;6.97;;;5.82;;
62024;SDS011;47978;49.118;12.146;2022-09-09T05:54:35;8.20;;;6.30;;
62024;SDS011;47978;49.118;12.146;2022-09-09T05:57:02;7.22;;;6.47;;
62024;SDS011;47978;49.118;12.146;2022-09-09T05:59:28;11.50;;;5.95;;
62024;SDS011;47978;49.118;12.146;2022-09-09T06:01:55;8.15;;;6.18;;
62024;SDS011;47978;49.118;12.146;2022-09-09T06:04:22;6.65;;;5.03;;
62024;SDS011;47978;49.118;12.146;2022-09-09T06:06:48;7.60;;;5.20;;
62024;SDS011;47978;49.118;12.146;2022-09-09T06:09:15;10.32;;;5.53;;
62024;SDS011;47978;49.118;12.146;2022-09-09T06:11:43;5.38;;;4.60;;
62024;SDS011;47978;49.118;12.146;2022-09-09T06:14:09;7.28;;;5.18;;
62024;SDS011;47978;49.118;12.146;2022-09-09T06:16:36;9.98;;;4.65;;
62024;SDS011;47978;49.118;12.146;2022-09-09T06:19:02;5.88;;;4.15;;
62024;SDS011;47978;49.118;12.146;2022-09-09T06:21:30;6.50;;;4.20;;
62024;SDS011;47978;49.118;12.146;2022-09-09T06:23:58;6.80;;;4.07;;
62024;SDS011;47978;49.118;12.146;2022-09-09T06:26:26;4.95;;;3.67;;
62024;SDS011;47978;49.118;12.146;2022-09-09T06:28:56;7.55;;;4.28;;
62024;SDS011;47978;49.118;12.146;2022-09-09T06:31:24;4.35;;;3.65;;
62024;SDS011;47978;49.118;12.146;2022-09-09T06:33:55;7.75;;;3.72;;
62024;SDS011;47978;49.118;12.146;2022-09-09T06:36:24;4.00;;;3.53;;
62024;SDS011;47978;49.118;12.146;2022-09-09T06:38:51;5.85;;;3.97;;
62024;SDS011;47978;49.118;12.146;2022-09-09T06:41:18;5.45;;;3.65;;
62024;SDS011;47978;49.118;12.146;2022-09-09T06:43:46;7.15;;;3.58;;
62024;SDS011;47978;49.118;12.146;2022-09-09T06:46:15;5.32;;;3.50;;
62024;SDS011;47978;49.118;12.146;2022-09-09T06:48:43;6.15;;;3.22;;
62024;SDS011;47978;49.118;12.146;2022-09-09T06:51:11;4.47;;;3.30;;
62024;SDS011;47978;49.118;12.146;2022-09-09T06:53:39;6.47;;;3.50;;
62024;SDS011;47978;49.118;12.146;2022-09-09T06:56:17;3.90;;;3.10;;
62024;SDS011;47978;49.118;12.146;2022-09-09T06:58:45;7.80;;;3.72;;
62024;SDS011;47978;49.118;12.146;2022-09-09T07:01:12;6.35;;;3.65;;
62024;SDS011;47978;49.118;12.146;2022-09-09T07:03:41;6.82;;;3.33;;
62024;SDS011;47978;49.118;12.146;2022-09-09T07:08:40;4.03;;;2.88;;
62024;SDS011;47978;49.118;12.146;2022-09-09T07:11:07;6.65;;;2.95;;
62024;SDS011;47978;49.118;12.146;2022-09-09T07:13:37;6.55;;;3.42;;
62024;SDS011;47978;49.118;12.146;2022-09-09T07:16:04;3.33;;;2.72;;
62024;SDS011;47978;49.118;12.146;2022-09-09T07:18:31;3.90;;;2.80;;
62024;SDS011;47978;49.118;12.146;2022-09-09T07:21:00;4.97;;;3.25;;
62024;SDS011;47978;49.118;12.146;2022-09-09T07:23:27;7.68;;;3.00;;
62024;SDS011;47978;49.118;12.146;2022-09-09T07:26:00;6.07;;;2.80;;
62024;SDS011;47978;49.118;12.146;2022-09-09T07:28:27;6.00;;;2.50;;
62024;SDS011;47978;49.118;12.146;2022-09-09T07:30:54;3.63;;;2.42;;
62024;SDS011;47978;49.118;12.146;2022-09-09T07:33:21;3.72;;;2.42;;
62024;SDS011;47978;49.118;12.146;2022-09-09T07:35:48;3.15;;;2.50;;
62024;SDS011;47978;49.118;12.146;2022-09-09T07:38:16;4.95;;;2.10;;
62024;SDS011;47978;49.118;12.146;2022-09-09T07:40:42;3.60;;;2.10;;
62024;SDS011;47978;49.118;12.146;2022-09-09T07:43:09;5.05;;;2.50;;
62024;SDS011;47978;49.118;12.146;2022-09-09T07:45:41;3.75;;;1.90;;
62024;SDS011;47978;49.118;12.146;2022-09-09T07:48:08;5.30;;;1.98;;
62024;SDS011;47978;49.118;12.146;2022-09-09T07:50:35;2.75;;;2.08;;
62024;SDS011;47978;49.118;12.146;2022-09-09T07:53:01;2.75;;;2.00;;
62024;SDS011;47978;49.118;12.146;2022-09-09T07:55:29;4.20;;;2.47;;
62024;SDS011;47978;49.118;12.146;2022-09-09T07:57:56;7.07;;;2.30;;
62024;SDS011;47978;49.118;12.146;2022-09-09T08:00:22;2.90;;;2.50;;
62024;SDS011;47978;49.118;12.146;2022-09-09T08:02:49;6.55;;;3.30;;
62024;SDS011;47978;49.118;12.146;2022-09-09T08:05:15;4.50;;;3.58;;
62024;SDS011;47978;49.118;12.146;2022-09-09T08:07:42;4.50;;;3.20;;
62024;SDS011;47978;49.118;12.146;2022-09-09T08:10:08;5.00;;;3.85;;
62024;SDS011;47978;49.118;12.146;2022-09-09T08:12:36;9.43;;;3.65;;
62024;SDS011;47978;49.118;12.146;2022-09-09T08:15:03;6.13;;;3.53;;
62024;SDS011;47978;49.118;12.146;2022-09-09T08:17:31;6.18;;;3.63;;
62024;SDS011;47978;49.118;12.146;2022-09-09T08:19:57;4.63;;;3.53;;
62024;SDS011;47978;49.118;12.146;2022-09-09T08:22:24;7.28;;;3.47;;
62024;SDS011;47978;49.118;12.146;2022-09-09T08:24:50;5.43;;;3.50;;
62024;SDS011;47978;49.118;12.146;2022-09-09T08:27:17;8.95;;;3.47;;
62024;SDS011;47978;49.118;12.146;2022-09-09T08:29:44;4.15;;;3.50;;
62024;SDS011;47978;49.118;12.146;2022-09-09T08:32:11;4.60;;;3.13;;
62024;SDS011;47978;49.118;12.146;2022-09-09T08:34:39;5.03;;;3.85;;
62024;SDS011;47978;49.118;12.146;2022-09-09T08:37:06;4.95;;;3.53;;
62024;SDS011;47978;49.118;12.146;2022-09-09T08:39:33;5.60;;;3.45;;
62024;SDS011;47978;49.118;12.146;2022-09-09T08:45:12;4.55;;;3.42;;
62024;SDS011;47978;49.118;12.146;2022-09-09T08:47:48;4.32;;;3.33;;
62024;SDS011;47978;49.118;12.146;2022-09-09T08:50:25;6.15;;;3.75;;
62024;SDS011;47978;49.118;12.146;2022-09-09T08:52:55;4.75;;;3.08;;
62024;SDS011;47978;49.118;12.146;2022-09-09T08:55:29;5.75;;;3.58;;
62024;SDS011;47978;49.118;12.146;2022-09-09T08:58:05;5.18;;;3.45;;
62024;SDS011;47978;49.118;12.146;2022-09-09T09:00:40;5.45;;;3.63;;
62024;SDS011;47978;49.118;12.146;2022-09-09T09:03:15;5.88;;;3.17;;
62024;SDS011;47978;49.118;12.146;2022-09-09T09:05:54;3.92;;;3.05;;
62024;SDS011;47978;49.118;12.146;2022-09-09T09:08:29;8.23;;;3.40;;
62024;SDS011;47978;49.118;12.146;2022-09-09T09:11:02;4.90;;;3.00;;
62024;SDS011;47978;49.118;12.146;2022-09-09T09:13:31;7.13;;;3.25;;
62024;SDS011;47978;49.118;12.146;2022-09-09T09:16:12;4.85;;;2.90;;
62024;SDS011;47978;49.118;12.146;2022-09-09T09:18:45;5.95;;;2.78;;
62024;SDS011;47978;49.118;12.146;2022-09-09T09:21:13;4.82;;;2.42;;
62024;SDS011;47978;49.118;12.146;2022-09-09T09:23:45;3.33;;;2.42;;
62024;SDS011;47978;49.118;12.146;2022-09-09T09:26:19;2.92;;;2.40;;
62024;SDS011;47978;49.118;12.146;2022-09-09T09:28:47;3.60;;;2.25;;
62024;SDS011;47978;49.118;12.146;2022-09-09T09:31:18;13.13;;;2.58;;
62024;SDS011;47978;49.118;12.146;2022-09-09T09:33:47;3.63;;;1.80;;
62024;SDS011;47978;49.118;12.146;2022-09-09T09:36:15;3.65;;;2.15;;
62024;SDS011;47978;49.118;12.146;2022-09-09T09:38:51;5.32;;;2.28;;
62024;SDS011;47978;49.118;12.146;2022-09-09T09:41:40;2.85;;;1.88;;
62024;SDS011;47978;49.118;12.146;2022-09-09T09:44:20;4.05;;;1.60;;
62024;SDS011;47978;49.118;12.146;2022-09-09T09:46:50;4.45;;;2.13;;
62024;SDS011;47978;49.118;12.146;2022-09-09T09:49:17;4.80;;;1.83;;
62024;SDS011;47978;49.118;12.146;2022-09-09T09:51:43;3.08;;;1.63;;
62024;SDS011;47978;49.118;12.146;2022-09-09T09:54:15;2.97;;;1.70;;
62024;SDS011;47978;49.118;12.146;2022-09-09T09:56:48;3.15;;;1.80;;
62024;SDS011;47978;49.118;12.146;2022-09-09T09:59:19;5.28;;;1.70;;
62024;SDS011;47978;49.118;12.146;2022-09-09T10:02:13;3.67;;;1.90;;
62024;SDS011;47978;49.118;12.146;2022-09-09T10:04:42;3.53;;;1.65;;
62024;SDS011;47978;49.118;12.146;2022-09-09T10:07:10;3.03;;;1.40;;
62024;SDS011;47978;49.118;12.146;2022-09-09T10:09:37;3.17;;;1.40;;
62024;SDS011;47978;49.118;12.146;2022-09-09T10:12:05;4.25;;;1.65;;
62024;SDS011;47978;49.118;12.146;2022-09-09T10:14:42;3.22;;;1.30;;
62024;SDS011;47978;49.118;12.146;2022-09-09T10:17:18;2.72;;;1.20;;
62024;SDS011;47978;49.118;12.146;2022-09-09T10:19:51;3.03;;;1.00;;
62024;SDS011;47978;49.118;12.146;2022-09-09T10:22:28;1.42;;;0.98;;
62024;SDS011;47978;49.118;12.146;2022-09-09T10:25:14;4.55;;;1.10;;
62024;SDS011;47978;49.118;12.146;2022-09-09T10:27:54;1.73;;;1.07;;
62024;SDS011;47978;49.118;12.146;2022-09-09T10:30:36;1.73;;;1.00;;
62024;SDS011;47978;49.118;12.146;2022-09-09T10:33:16;3.05;;;1.10;;
62024;SDS011;47978;49.118;12.146;2022-09-09T10:35:51;2.53;;;1.30;;
62024;SDS011;47978;49.118;12.146;2022-09-09T10:38:26;1.75;;;1.15;;
62024;SDS011;47978;49.118;12.146;2022-09-09T10:41:01;6.07;;;1.42;;
62024;SDS011;47978;49.118;12.146;2022-09-09T10:43:53;1.77;;;1.17;;
62024;SDS011;47978;49.118;12.146;2022-09-09T10:46:34;1.45;;;1.10;;
62024;SDS011;47978;49.118;12.146;2022-09-09T10:49:13;1.65;;;1.02;;
62024;SDS011;47978;49.118;12.146;2022-09-09T10:51:53;1.35;;;1.00;;
62024;SDS011;47978;49.118;12.146;2022-09-09T10:54:30;1.00;;;0.82;;
62024;SDS011;47978;49.118;12.146;2022-09-09T10:57:08;1.65;;;0.90;;
62024;SDS011;47978;49.118;12.146;2022-09-09T10:59:40;2.10;;;1.02;;
62024;SDS011;47978;49.118;12.146;2022-09-09T11:02:12;1.60;;;1.00;;
62024;SDS011;47978;49.118;12.146;2022-09-09T11:04:44;1.08;;;0.82;;
62024;SDS011;47978;49.118;12.146;2022-09-09T11:07:16;3.28;;;1.00;;
62024;SDS011;47978;49.118;12.146;2022-09-09T11:09:53;2.00;;;1.13;;
62024;SDS011;47978;49.118;12.146;2022-09-09T11:12:24;7.78;;;1.40;;
62024;SDS011;47978;49.118;12.146;2022-09-09T11:14:55;1.85;;;1.30;;
62024;SDS011;47978;49.118;12.146;2022-09-09T11:17:33;2.22;;;1.13;;
62024;SDS011;47978;49.118;12.146;2022-09-09T11:20:06;2.40;;;1.13;;
62024;SDS011;47978;49.118;12.146;2022-09-09T11:22:39;3.05;;;1.50;;
62024;SDS011;47978;49.118;12.146;2022-09-09T11:25:15;3.15;;;1.75;;
62024;SDS011;47978;49.118;12.146;2022-09-09T11:27:45;7.18;;;1.92;;
62024;SDS011;47978;49.118;12.146;2022-09-09T11:30:24;4.10;;;1.73;;
62024;SDS011;47978;49.118;12.146;2022-09-09T11:33:18;4.35;;;1.60;;
62024;SDS011;47978;49.118;12.146;2022-09-09T11:36:05;2.08;;;1.30;;
62024;SDS011;47978;49.118;12.146;2022-09-09T11:38:41;3.38;;;1.30;;
62024;SDS011;47978;49.118;12.146;2022-09-09T11:41:11;2.67;;;1.17;;
62024;SDS011;47978;49.118;12.146;2022-09-09T11:43:47;2.08;;;1.15;;
62024;SDS011;47978;49.118;12.146;2022-09-09T11:46:15;3.45;;;1.38;;
62024;SDS011;47978;49.118;12.146;2022-09-09T11:48:45;2.08;;;0.98;;
62024;SDS011;47978;49.118;12.146;2022-09-09T11:51:27;2.22;;;0.82;;
62024;SDS011;47978;49.118;12.146;2022-09-09T11:53:54;1.88;;;1.15;;
62024;SDS011;47978;49.118;12.146;2022-09-09T11:56:24;1.85;;;1.00;;
62024;SDS011;47978;49.118;12.146;2022-09-09T11:58:56;1.02;;;0.73;;
62024;SDS011;47978;49.118;12.146;2022-09-09T12:01:26;1.52;;;1.10;;
62024;SDS011;47978;49.118;12.146;2022-09-09T12:04:26;3.63;;;1.17;;
62024;SDS011;47978;49.118;12.146;2022-09-09T12:06:58;3.35;;;1.20;;
62024;SDS011;47978;49.118;12.146;2022-09-09T12:09:28;2.50;;;1.30;;
62024;SDS011;47978;49.118;12.146;2022-09-09T12:12:06;2.63;;;1.30;;
62024;SDS011;47978;49.118;12.146;2022-09-09T12:14:54;2.58;;;1.45;;
62024;SDS011;47978;49.118;12.146;2022-09-09T12:17:24;2.85;;;1.27;;
62024;SDS011;47978;49.118;12.146;2022-09-09T12:19:59;2.50;;;1.40;;
62024;SDS011;47978;49.118;12.146;2022-09-09T12:22:30;1.67;;;1.27;;
62024;SDS011;47978;49.118;12.146;2022-09-09T12:25:06;1.85;;;1.27;;
62024;SDS011;47978;49.118;12.146;2022-09-09T12:27:50;2.00;;;1.17;;
62024;SDS011;47978;49.118;12.146;2022-09-09T12:30:28;4.00;;;1.30;;
62024;SDS011;47978;49.118;12.146;2022-09-09T12:33:01;2.78;;;1.58;;
62024;SDS011;47978;49.118;12.146;2022-09-09T12:35:33;2.50;;;1.50;;
62024;SDS011;47978;49.118;12.146;2022-09-09T12:38:01;3.17;;;1.50;;
62024;SDS011;47978;49.118;12.146;2022-09-09T12:40:30;3.35;;;1.50;;
62024;SDS011;47978;49.118;12.146;2022-09-09T12:42:58;2.78;;;1.30;;
62024;SDS011;47978;49.118;12.146;2022-09-09T12:45:26;5.07;;;1.40;;
62024;SDS011;47978;49.118;12.146;2022-09-09T12:47:56;3.55;;;1.50;;
62024;SDS011;47978;49.118;12.146;2022-09-09T12:50:26;1.75;;;1.20;;
62024;SDS011;47978;49.118;12.146;2022-09-09T12:52:56;1.95;;;1.27;;
62024;SDS011;47978;49.118;12.146;2022-09-09T12:55:27;4.60;;;1.48;;
62024;SDS011;47978;49.118;12.146;2022-09-09T12:57:56;3.83;;;2.00;;
62024;SDS011;47978;49.118;12.146;2022-09-09T13:00:24;2.67;;;1.00;;
62024;SDS011;47978;49.118;12.146;2022-09-09T13:02:51;2.47;;;1.55;;
62024;SDS011;47978;49.118;12.146;2022-09-09T13:05:20;3.25;;;1.25;;
62024;SDS011;47978;49.118;12.146;2022-09-09T13:07:49;2.95;;;1.55;;
62024;SDS011;47978;49.118;12.146;2022-09-09T13:10:20;2.78;;;1.48;;
62024;SDS011;47978;49.118;12.146;2022-09-09T13:13:03;3.33;;;1.55;;
62024;SDS011;47978;49.118;12.146;2022-09-09T13:15:30;2.45;;;1.30;;
62024;SDS011;47978;49.118;12.146;2022-09-09T13:17:57;2.58;;;1.60;;
62024;SDS011;47978;49.118;12.146;2022-09-09T13:20:27;2.75;;;1.60;;
62024;SDS011;47978;49.118;12.146;2022-09-09T13:22:54;6.47;;;1.92;;
62024;SDS011;47978;49.118;12.146;2022-09-09T13:25:22;2.60;;;1.60;;
62024;SDS011;47978;49.118;12.146;2022-09-09T13:27:52;5.47;;;1.92;;
62024;SDS011;47978;49.118;12.146;2022-09-09T13:30:24;4.15;;;1.70;;
62024;SDS011;47978;49.118;12.146;2022-09-09T13:32:59;2.67;;;1.35;;
62024;SDS011;47978;49.118;12.146;2022-09-09T13:35:31;2.90;;;1.30;;
62024;SDS011;47978;49.118;12.146;2022-09-09T13:37:58;3.40;;;1.55;;
62024;SDS011;47978;49.118;12.146;2022-09-09T13:40:32;4.63;;;1.70;;
62024;SDS011;47978;49.118;12.146;2022-09-09T13:42:58;3.78;;;1.30;;
62024;SDS011;47978;49.118;12.146;2022-09-09T13:45:26;2.00;;;1.40;;
62024;SDS011;47978;49.118;12.146;2022-09-09T13:47:53;1.73;;;1.50;;
62024;SDS011;47978;49.118;12.146;2022-09-09T13:50:20;3.85;;;1.45;;
62024;SDS011;47978;49.118;12.146;2022-09-09T13:52:48;3.85;;;1.58;;
62024;SDS011;47978;49.118;12.146;2022-09-09T13:55:15;2.30;;;1.40;;
62024;SDS011;47978;49.118;12.146;2022-09-09T13:57:49;3.13;;;2.05;;
62024;SDS011;47978;49.118;12.146;2022-09-09T14:00:17;3.00;;;1.52;;
62024;SDS011;47978;49.118;12.146;2022-09-09T14:02:45;3.03;;;1.50;;
62024;SDS011;47978;49.118;12.146;2022-09-09T14:05:12;3.58;;;1.63;;
62024;SDS011;47978;49.118;12.146;2022-09-09T14:07:39;7.85;;;1.80;;
62024;SDS011;47978;49.118;12.146;2022-09-09T14:10:06;3.67;;;1.63;;
62024;SDS011;47978;49.118;12.146;2022-09-09T14:12:33;2.70;;;1.55;;
62024;SDS011;47978;49.118;12.146;2022-09-09T14:15:00;3.63;;;1.48;;
62024;SDS011;47978;49.118;12.146;2022-09-09T14:17:26;2.10;;;1.25;;
62024;SDS011;47978;49.118;12.146;2022-09-09T14:19:54;4.45;;;1.60;;
62024;SDS011;47978;49.118;12.146;2022-09-09T14:22:21;2.05;;;1.20;;
62024;SDS011;47978;49.118;12.146;2022-09-09T14:24:47;3.08;;;1.50;;
62024;SDS011;47978;49.118;12.146;2022-09-09T14:27:14;4.05;;;1.23;;
62024;SDS011;47978;49.118;12.146;2022-09-09T14:29:40;3.20;;;1.42;;
62024;SDS011;47978;49.118;12.146;2022-09-09T14:32:08;1.80;;;1.10;;
62024;SDS011;47978;49.118;12.146;2022-09-09T14:34:38;2.97;;;1.40;;
62024;SDS011;47978;49.118;12.146;2022-09-09T14:37:06;2.25;;;1.20;;
62024;SDS011;47978;49.118;12.146;2022-09-09T14:39:32;3.85;;;1.02;;
62024;SDS011;47978;49.118;12.146;2022-09-09T14:41:59;1.42;;;1.00;;
62024;SDS011;47978;49.118;12.146;2022-09-09T14:44:25;3.00;;;1.27;;
62024;SDS011;47978;49.118;12.146;2022-09-09T14:46:52;4.20;;;1.30;;
62024;SDS011;47978;49.118;12.146;2022-09-09T14:49:18;1.73;;;0.93;;
62024;SDS011;47978;49.118;12.146;2022-09-09T14:51:45;5.68;;;1.10;;
62024;SDS011;47978;49.118;12.146;2022-09-09T14:54:13;3.53;;;1.10;;
62024;SDS011;47978;49.118;12.146;2022-09-09T14:56:39;3.13;;;1.20;;
62024;SDS011;47978;49.118;12.146;2022-09-09T14:59:06;1.85;;;1.30;;
62024;SDS011;47978;49.118;12.146;2022-09-09T15:01:33;2.60;;;1.20;;